createdAt,value
2023-04-27T00:00:45.269Z,7.50
2023-04-27T00:02:48.187Z,7.62
2023-04-27T00:04:51.760Z,6.67
2023-04-27T00:06:54.738Z,7.21
2023-04-27T00:08:59.493Z,7.81
2023-04-27T00:11:02.308Z,7.73
2023-04-27T00:13:06.113Z,7.40
2023-04-27T00:15:10.408Z,7.70
2023-04-27T00:17:13.119Z,7.45
2023-04-27T00:19:16.475Z,7.46
2023-04-27T00:21:19.419Z,7.20
2023-04-27T00:23:22.709Z,7.20
2023-04-27T00:25:27.236Z,7.67
2023-04-27T00:27:29.999Z,7.70
2023-04-27T00:29:32.753Z,7.37
2023-04-27T00:31:36.385Z,7.53
2023-04-27T00:33:39.241Z,5.75
2023-04-27T00:35:41.963Z,7.62
2023-04-27T00:37:44.642Z,7.78
2023-04-27T00:39:47.441Z,6.18
2023-04-27T00:41:51.714Z,7.11
2023-04-27T00:43:54.438Z,7.71
2023-04-27T00:45:57.462Z,7.87
2023-04-27T00:48:00.815Z,7.69
2023-04-27T00:50:04.469Z,7.96
2023-04-27T00:52:07.726Z,7.33
2023-04-27T00:54:11.334Z,7.61
2023-04-27T00:56:14.154Z,7.50
2023-04-27T00:58:18.545Z,7.71
2023-04-27T01:00:21.544Z,7.47
2023-04-27T01:02:25.577Z,6.93
2023-04-27T01:04:29.836Z,7.89
2023-04-27T01:06:33.541Z,7.98
2023-04-27T01:08:36.356Z,7.77
2023-04-27T01:10:39.145Z,7.35
2023-04-27T01:12:41.882Z,7.30
2023-04-27T01:14:46.991Z,7.29
2023-04-27T01:16:50.641Z,6.86
2023-04-27T01:18:53.456Z,7.10
2023-04-27T01:20:56.203Z,6.66
2023-04-27T01:22:59.492Z,5.97
2023-04-27T01:25:03.710Z,6.44
2023-04-27T01:27:07.520Z,6.23
2023-04-27T01:29:11.102Z,7.02
2023-04-27T01:31:14.923Z,7.25
2023-04-27T01:33:17.887Z,6.90
2023-04-27T01:35:25.178Z,7.37
2023-04-27T01:37:29.100Z,7.10
2023-04-27T01:39:31.961Z,7.06
2023-04-27T01:41:36.039Z,6.78
2023-04-27T01:43:39.583Z,6.70
2023-04-27T01:45:42.351Z,7.61
2023-04-27T01:47:45.113Z,7.23
2023-04-27T01:49:47.878Z,7.00
2023-04-27T01:51:51.427Z,6.00
2023-04-27T01:53:54.157Z,7.17
2023-04-27T01:55:56.913Z,4.70
2023-04-27T01:58:02.058Z,6.66
2023-04-27T02:00:05.808Z,6.50
2023-04-27T02:02:23.479Z,6.78
2023-04-27T02:04:26.494Z,6.69
2023-04-27T02:06:29.341Z,6.69
2023-04-27T02:08:32.047Z,6.71
2023-04-27T02:10:36.061Z,6.63
2023-04-27T02:12:38.816Z,6.85
2023-04-27T02:14:44.820Z,6.71
2023-04-27T02:16:47.574Z,5.87
2023-04-27T02:18:50.367Z,6.67
2023-04-27T02:20:53.510Z,6.97
2023-04-27T02:22:56.535Z,6.82
2023-04-27T02:25:02.259Z,6.12
2023-04-27T02:27:06.158Z,7.13
2023-04-27T02:29:09.537Z,7.24
2023-04-27T02:31:15.033Z,5.72
2023-04-27T02:33:17.968Z,6.74
2023-04-27T02:35:21.042Z,6.70
2023-04-27T02:37:23.904Z,6.24
2023-04-27T02:39:26.702Z,6.90
2023-04-27T02:41:32.826Z,6.54
2023-04-27T02:43:35.599Z,7.03
2023-04-27T02:45:41.410Z,7.25
2023-04-27T02:47:45.573Z,7.36
2023-04-27T02:49:50.759Z,6.18
2023-04-27T02:51:53.454Z,7.54
2023-04-27T02:53:56.285Z,7.38
2023-04-27T02:55:59.255Z,7.65
2023-04-27T02:58:02.180Z,7.15
2023-04-27T03:00:07.010Z,5.17
2023-04-27T03:02:09.927Z,7.53
2023-04-27T03:04:15.163Z,5.99
2023-04-27T03:06:18.239Z,7.67
2023-04-27T03:08:21.079Z,7.56
2023-04-27T03:10:23.900Z,7.61
2023-04-27T03:12:26.689Z,7.63
2023-04-27T03:14:29.449Z,7.47
2023-04-27T03:16:34.192Z,7.11
2023-04-27T03:18:37.022Z,7.75
2023-04-27T03:20:41.145Z,7.57
2023-04-27T03:22:45.834Z,6.76
2023-04-27T03:24:48.737Z,8.01
2023-04-27T03:26:52.586Z,7.10
2023-04-27T03:28:57.074Z,7.88
2023-04-27T03:30:59.882Z,8.16
2023-04-27T03:33:03.703Z,7.87
2023-04-27T03:35:08.033Z,8.14
2023-04-27T03:37:12.181Z,7.42
2023-04-27T03:39:15.174Z,8.10
2023-04-27T03:41:18.214Z,8.10
2023-04-27T03:43:21.970Z,7.34
2023-04-27T03:45:24.729Z,7.29
2023-04-27T03:47:27.987Z,6.11
2023-04-27T03:49:30.792Z,7.78
2023-04-27T03:51:33.975Z,5.70
2023-04-27T03:53:38.135Z,7.71
2023-04-27T03:55:43.374Z,7.15
2023-04-27T03:57:47.217Z,7.69
2023-04-27T03:59:50.022Z,7.85
2023-04-27T04:01:53.016Z,7.08
2023-04-27T04:03:56.598Z,7.86
2023-04-27T04:05:59.673Z,7.40
2023-04-27T04:08:02.525Z,7.62
2023-04-27T04:10:08.449Z,6.51
2023-04-27T04:12:13.347Z,7.47
2023-04-27T04:14:16.396Z,7.50
2023-04-27T04:16:19.501Z,6.39
2023-04-27T04:18:22.263Z,6.88
2023-04-27T04:20:25.277Z,6.43
2023-04-27T04:22:28.113Z,5.90
2023-04-27T04:24:31.311Z,6.22
2023-04-27T04:26:35.494Z,7.36
2023-04-27T04:28:38.346Z,7.50
2023-04-27T04:30:41.234Z,6.65
2023-04-27T04:32:44.944Z,6.94
2023-04-27T04:34:51.197Z,6.59
2023-04-27T04:36:57.353Z,7.39
2023-04-27T04:39:00.452Z,7.76
2023-04-27T04:41:03.390Z,7.47
2023-04-27T04:43:10.133Z,7.79
2023-04-27T04:45:13.013Z,7.81
2023-04-27T04:47:16.558Z,6.97
2023-04-27T04:49:19.543Z,7.80
2023-04-27T04:51:22.407Z,7.88
2023-04-27T04:53:26.200Z,7.72
2023-04-27T04:55:31.472Z,7.72
2023-04-27T04:57:34.291Z,7.80
2023-04-27T04:59:38.459Z,7.20
2023-04-27T05:01:41.304Z,7.95
2023-04-27T05:03:44.274Z,5.85
2023-04-27T05:05:49.147Z,8.05
2023-04-27T05:07:51.897Z,8.05
2023-04-27T05:09:54.843Z,8.07
2023-04-27T05:11:57.593Z,7.92
2023-04-27T05:14:00.307Z,8.02
2023-04-27T05:16:06.561Z,8.07
2023-04-27T05:18:09.776Z,8.10
2023-04-27T05:20:12.915Z,7.40
2023-04-27T05:22:15.731Z,8.13
2023-04-27T05:24:19.084Z,7.16
2023-04-27T05:26:21.936Z,6.88
2023-04-27T05:28:24.683Z,8.13
2023-04-27T05:30:27.667Z,7.48
2023-04-27T05:32:33.732Z,8.30
2023-04-27T05:34:36.788Z,8.30
2023-04-27T05:36:39.511Z,8.33
2023-04-27T05:38:42.964Z,8.15
2023-04-27T05:40:46.135Z,8.45
2023-04-27T05:42:49.266Z,8.55
2023-04-27T05:44:52.012Z,8.66
2023-04-27T05:46:54.927Z,8.28
2023-04-27T05:48:59.009Z,8.69
2023-04-27T05:51:02.694Z,7.45
2023-04-27T05:53:06.085Z,8.81
2023-04-27T05:55:09.357Z,9.03
2023-04-27T05:57:12.187Z,8.23
2023-04-27T05:59:15.322Z,9.17
2023-04-27T06:01:18.365Z,9.25
2023-04-27T06:03:21.678Z,9.28
2023-04-27T06:05:27.115Z,9.31
2023-04-27T06:07:29.988Z,9.45
2023-04-27T06:09:32.691Z,9.55
2023-04-27T06:11:35.396Z,9.46
2023-04-27T06:13:38.159Z,8.28
2023-04-27T06:15:40.975Z,9.29
2023-04-27T06:17:44.459Z,9.70
2023-04-27T06:19:47.296Z,9.63
2023-04-27T06:21:51.919Z,9.24
2023-04-27T06:23:54.674Z,9.38
2023-04-27T06:25:58.757Z,9.65
2023-04-27T06:28:01.576Z,9.79
2023-04-27T06:30:05.047Z,9.80
2023-04-27T06:32:07.924Z,9.23
2023-04-27T06:34:10.853Z,10.02
2023-04-27T06:36:13.658Z,9.08
2023-04-27T06:38:17.769Z,9.86
2023-04-27T06:40:20.711Z,9.73
2023-04-27T06:42:23.474Z,10.05
2023-04-27T06:44:26.324Z,9.42
2023-04-27T06:46:29.143Z,10.15
2023-04-27T06:48:32.000Z,9.72
2023-04-27T06:50:34.806Z,10.58
2023-04-27T06:52:37.564Z,10.77
2023-04-27T06:54:41.929Z,10.92
2023-04-27T06:56:45.712Z,11.07
2023-04-27T06:58:48.462Z,11.08
2023-04-27T07:00:51.650Z,11.08
2023-04-27T07:02:54.677Z,11.08
2023-04-27T07:04:57.870Z,11.37
2023-04-27T07:07:00.982Z,10.04
2023-04-27T07:09:13.283Z,11.51
2023-04-27T07:11:24.630Z,11.57
2023-04-27T07:13:27.345Z,11.69
2023-04-27T07:15:31.666Z,11.31
2023-04-27T07:17:34.620Z,11.87
2023-04-27T07:19:38.179Z,11.85
2023-04-27T07:21:41.162Z,12.01
2023-04-27T07:23:44.369Z,12.12
2023-04-27T07:25:47.318Z,11.67
2023-04-27T07:27:52.412Z,11.90
2023-04-27T07:29:55.715Z,11.88
2023-04-27T07:31:58.556Z,11.68
2023-04-27T07:34:01.400Z,12.01
2023-04-27T07:36:05.232Z,12.38
2023-04-27T07:38:08.433Z,12.55
2023-04-27T07:40:16.463Z,12.71
2023-04-27T07:42:19.664Z,12.86
2023-04-27T07:44:23.780Z,12.92
2023-04-27T07:46:26.789Z,12.24
2023-04-27T07:48:30.769Z,13.02
2023-04-27T07:50:34.101Z,13.18
2023-04-27T07:52:37.214Z,13.10
2023-04-27T07:54:40.985Z,13.24
2023-04-27T07:56:44.237Z,13.53
2023-04-27T07:58:47.419Z,12.84
2023-04-27T08:00:51.682Z,13.33
2023-04-27T08:02:55.650Z,13.39
2023-04-27T08:04:59.150Z,13.58
2023-04-27T08:07:02.831Z,13.70
2023-04-27T08:09:06.826Z,13.89
2023-04-27T08:11:11.266Z,13.41
2023-04-27T08:13:14.025Z,14.08
2023-04-27T08:15:16.849Z,14.25
2023-04-27T08:17:21.918Z,14.32
2023-04-27T08:19:24.717Z,14.39
2023-04-27T08:21:28.344Z,13.94
2023-04-27T08:23:32.868Z,14.10
2023-04-27T08:25:37.083Z,14.54
2023-04-27T08:27:40.523Z,14.70
2023-04-27T08:29:48.935Z,14.71
2023-04-27T08:31:52.635Z,14.52
2023-04-27T08:33:58.305Z,14.75
2023-04-27T08:36:01.143Z,14.88
2023-04-27T08:38:03.998Z,14.05
2023-04-27T08:40:08.243Z,14.61
2023-04-27T08:42:15.132Z,14.85
2023-04-27T08:44:17.914Z,14.94
2023-04-27T08:46:21.617Z,14.85
2023-04-27T08:48:25.013Z,14.98
2023-04-27T08:50:29.932Z,15.20
2023-04-27T08:52:32.835Z,15.38
2023-04-27T08:54:35.642Z,15.42
2023-04-27T08:56:38.454Z,15.00
2023-04-27T08:58:41.224Z,15.47
2023-04-27T09:00:46.691Z,14.23
2023-04-27T09:02:50.349Z,14.56
2023-04-27T09:04:53.392Z,15.69
2023-04-27T09:06:57.639Z,15.84
2023-04-27T09:09:01.489Z,14.57
2023-04-27T09:11:04.311Z,14.27
2023-04-27T09:13:07.050Z,14.42
2023-04-27T09:15:10.656Z,15.74
2023-04-27T09:17:14.830Z,15.84
2023-04-27T09:19:25.846Z,15.53
2023-04-27T09:21:30.592Z,15.16
2023-04-27T09:23:36.360Z,15.84
2023-04-27T09:25:39.110Z,15.91
2023-04-27T09:27:45.274Z,16.06
2023-04-27T09:29:48.011Z,15.67
2023-04-27T09:31:50.803Z,16.47
2023-04-27T09:33:56.569Z,16.54
2023-04-27T09:36:01.030Z,16.53
2023-04-27T09:38:03.824Z,16.61
2023-04-27T09:40:09.590Z,16.67
2023-04-27T09:42:13.563Z,16.69
2023-04-27T09:44:17.212Z,16.15
2023-04-27T09:46:20.867Z,16.24
2023-04-27T09:48:24.442Z,16.22
2023-04-27T09:50:27.202Z,16.28
2023-04-27T09:52:29.973Z,16.15
2023-04-27T09:54:35.591Z,15.89
2023-04-27T09:56:52.188Z,16.71
2023-04-27T09:59:11.253Z,16.97
2023-04-27T10:01:24.097Z,17.13
2023-04-27T10:03:34.261Z,17.24
2023-04-27T10:06:16.375Z,17.11
2023-04-27T10:08:19.449Z,17.31
2023-04-27T10:10:22.272Z,17.61
2023-04-27T10:12:29.119Z,17.65
2023-04-27T10:14:31.863Z,17.79
2023-04-27T10:16:44.716Z,17.99
2023-04-27T10:18:53.642Z,17.12
2023-04-27T10:20:56.754Z,17.73
2023-04-27T10:23:00.992Z,18.48
2023-04-27T10:25:14.731Z,18.49
2023-04-27T10:27:22.517Z,18.60
2023-04-27T10:29:36.755Z,18.27
2023-04-27T10:31:45.483Z,18.22
2023-04-27T10:33:48.543Z,18.80
2023-04-27T10:36:00.321Z,19.02
2023-04-27T10:38:08.517Z,19.20
2023-04-27T10:40:14.642Z,17.65
2023-04-27T10:42:28.414Z,18.72
2023-04-27T10:44:35.677Z,18.72
2023-04-27T10:46:50.435Z,19.63
2023-04-27T10:48:53.167Z,19.74
2023-04-27T10:50:57.964Z,20.21
2023-04-27T10:53:02.506Z,20.26
2023-04-27T10:55:15.840Z,20.00
2023-04-27T10:57:18.775Z,19.74
2023-04-27T10:59:21.620Z,20.02
2023-04-27T11:01:29.467Z,20.28
2023-04-27T11:03:33.836Z,20.45
2023-04-27T11:05:36.763Z,20.76
2023-04-27T11:07:39.543Z,20.68
2023-04-27T11:09:43.623Z,20.89
2023-04-27T11:11:47.981Z,21.08
2023-04-27T11:13:52.865Z,21.27
2023-04-27T11:15:57.501Z,20.73
2023-04-27T11:18:07.371Z,20.55
2023-04-27T11:20:10.771Z,19.90
2023-04-27T11:22:16.294Z,20.29
2023-04-27T11:24:19.026Z,20.22
2023-04-27T11:26:23.788Z,18.83
2023-04-27T11:28:27.065Z,19.14
2023-04-27T11:30:29.776Z,19.93
2023-04-27T11:32:32.790Z,19.67
2023-04-27T11:34:38.905Z,18.98
2023-04-27T11:36:41.697Z,19.48
2023-04-27T11:38:44.488Z,19.40
2023-04-27T11:40:48.351Z,18.57
2023-04-27T11:42:58.164Z,19.53
2023-04-27T11:45:02.745Z,19.82
2023-04-27T11:47:09.045Z,20.27
2023-04-27T11:49:12.153Z,20.45
2023-04-27T11:51:16.421Z,20.54
2023-04-27T11:53:19.181Z,20.62
2023-04-27T11:55:22.782Z,20.58
2023-04-27T11:57:27.134Z,20.31
2023-04-27T11:59:29.924Z,20.17
2023-04-27T12:01:38.018Z,19.58
2023-04-27T12:03:41.778Z,20.46
2023-04-27T12:05:49.958Z,19.74
2023-04-27T12:07:54.703Z,20.48
2023-04-27T12:09:59.547Z,20.33
2023-04-27T12:12:04.208Z,20.10
2023-04-27T12:14:07.227Z,19.48
2023-04-27T12:16:10.114Z,19.57
2023-04-27T12:18:12.951Z,19.61
2023-04-27T12:20:15.823Z,19.62
2023-04-27T12:22:24.509Z,18.94
2023-04-27T12:24:28.658Z,18.97
2023-04-27T12:26:31.376Z,19.45
2023-04-27T12:28:34.263Z,19.49
2023-04-27T12:30:37.051Z,19.55
2023-04-27T12:32:39.864Z,19.46
2023-04-27T12:34:42.901Z,19.43
2023-04-27T12:36:45.745Z,19.46
2023-04-27T12:38:48.449Z,19.15
2023-04-27T12:40:52.548Z,19.39
2023-04-27T12:42:55.229Z,19.49
2023-04-27T12:44:57.962Z,19.45
2023-04-27T12:47:00.757Z,19.59
2023-04-27T12:49:03.476Z,19.51
2023-04-27T12:51:07.089Z,19.24
2023-04-27T12:53:09.805Z,19.37
2023-04-27T12:55:21.503Z,19.53
2023-04-27T12:57:35.796Z,19.67
2023-04-27T12:59:38.502Z,19.66
2023-04-27T13:01:41.274Z,19.69
2023-04-27T13:03:44.777Z,19.56
2023-04-27T13:05:47.677Z,19.68
2023-04-27T13:07:50.478Z,19.65
2023-04-27T13:09:53.142Z,19.50
2023-04-27T13:11:59.225Z,19.06
2023-04-27T13:14:05.199Z,19.84
2023-04-27T13:16:08.394Z,19.42
2023-04-27T13:18:11.493Z,19.17
2023-04-27T13:20:15.207Z,20.13
2023-04-27T13:22:17.958Z,20.46
2023-04-27T13:24:20.630Z,20.31
2023-04-27T13:26:24.194Z,20.44
2023-04-27T13:28:26.944Z,20.67
2023-04-27T13:30:31.402Z,20.89
2023-04-27T13:32:34.133Z,20.71
2023-04-27T13:34:36.882Z,20.52
2023-04-27T13:36:39.606Z,19.72
2023-04-27T13:38:42.284Z,20.42
2023-04-27T13:40:45.107Z,20.28
2023-04-27T13:42:47.974Z,20.26
2023-04-27T13:44:50.829Z,20.03
2023-04-27T13:46:54.964Z,20.19
2023-04-27T13:48:57.787Z,20.17
2023-04-27T13:51:00.587Z,20.46
2023-04-27T13:53:03.617Z,18.94
2023-04-27T13:55:08.531Z,19.64
2023-04-27T13:57:11.360Z,20.35
2023-04-27T13:59:16.159Z,18.92
2023-04-27T14:01:19.119Z,20.31
2023-04-27T14:03:23.716Z,20.22
2023-04-27T14:05:26.709Z,20.26
2023-04-27T14:07:30.961Z,20.59
2023-04-27T14:09:33.801Z,20.57
2023-04-27T14:11:48.448Z,20.83
2023-04-27T14:13:55.523Z,20.60
2023-04-27T14:15:58.277Z,20.46
2023-04-27T14:18:01.118Z,20.55
2023-04-27T14:20:07.532Z,20.33
2023-04-27T14:22:10.446Z,20.26
2023-04-27T14:24:13.196Z,19.45
2023-04-27T14:26:15.900Z,20.27
2023-04-27T14:28:18.665Z,20.35
2023-04-27T14:30:21.482Z,19.77
2023-04-27T14:32:24.290Z,20.00
2023-04-27T14:34:27.010Z,19.99
2023-04-27T14:36:31.945Z,19.44
2023-04-27T14:38:34.696Z,19.80
2023-04-27T14:40:37.446Z,20.83
2023-04-27T14:42:40.365Z,20.60
2023-04-27T14:44:43.095Z,21.13
2023-04-27T14:46:46.495Z,21.65
2023-04-27T14:48:49.623Z,21.28
2023-04-27T14:50:53.306Z,21.34
2023-04-27T14:52:58.816Z,21.17
2023-04-27T14:55:01.861Z,21.76
2023-04-27T14:57:04.898Z,22.29
2023-04-27T14:59:07.663Z,22.46
2023-04-27T15:01:10.842Z,22.45
2023-04-27T15:03:13.700Z,21.83
2023-04-27T15:05:16.504Z,20.80
2023-04-27T15:07:20.102Z,21.73
2023-04-27T15:09:24.184Z,20.53
2023-04-27T15:11:26.931Z,20.74
2023-04-27T15:13:29.747Z,20.81
2023-04-27T15:15:32.531Z,19.36
2023-04-27T15:17:35.332Z,18.93
2023-04-27T15:19:38.161Z,19.57
2023-04-27T15:21:41.002Z,19.69
2023-04-27T15:23:43.830Z,20.09
2023-04-27T15:25:49.033Z,20.16
2023-04-27T15:27:51.751Z,20.39
2023-04-27T15:29:54.596Z,20.16
2023-04-27T15:31:57.313Z,20.94
2023-04-27T15:34:00.068Z,20.84
2023-04-27T15:36:02.974Z,20.66
2023-04-27T15:38:06.025Z,19.35
2023-04-27T15:40:10.410Z,20.04
2023-04-27T15:42:14.455Z,20.05
2023-04-27T15:44:17.131Z,20.20
2023-04-27T15:46:19.975Z,20.63
2023-04-27T15:48:22.786Z,20.66
2023-04-27T15:50:26.176Z,20.93
2023-04-27T15:52:28.841Z,20.57
2023-04-27T15:54:31.486Z,20.38
2023-04-27T15:56:34.213Z,20.60
2023-04-27T15:58:38.251Z,19.82
2023-04-27T16:00:41.003Z,20.76
2023-04-27T16:02:44.015Z,19.78
2023-04-27T16:04:46.938Z,20.77
2023-04-27T16:06:49.874Z,20.39
2023-04-27T16:08:52.694Z,20.52
2023-04-27T16:10:55.536Z,20.21
2023-04-27T16:12:58.229Z,19.93
2023-04-27T16:15:02.403Z,19.15
2023-04-27T16:17:05.135Z,20.71
2023-04-27T16:19:08.928Z,21.30
2023-04-27T16:21:11.704Z,22.34
2023-04-27T16:23:14.395Z,22.93
2023-04-27T16:25:17.070Z,22.76
2023-04-27T16:27:20.635Z,22.13
2023-04-27T16:29:23.318Z,21.30
2023-04-27T16:31:28.505Z,20.61
2023-04-27T16:33:31.268Z,20.53
2023-04-27T16:35:34.526Z,21.12
2023-04-27T16:37:37.209Z,21.35
2023-04-27T16:39:40.056Z,21.12
2023-04-27T16:41:42.715Z,21.19
2023-04-27T16:43:46.196Z,21.11
2023-04-27T16:45:48.893Z,20.33
2023-04-27T16:47:53.039Z,19.46
2023-04-27T16:49:55.786Z,19.72
2023-04-27T16:51:58.834Z,20.09
2023-04-27T16:54:02.497Z,20.40
2023-04-27T16:56:05.735Z,21.38
2023-04-27T16:58:08.430Z,22.78
2023-04-27T17:00:12.948Z,23.30
2023-04-27T17:02:24.397Z,22.19
2023-04-27T17:04:32.083Z,23.50
2023-04-27T17:06:34.931Z,23.65
2023-04-27T17:08:37.868Z,23.65
2023-04-27T17:10:41.517Z,23.85
2023-04-27T17:12:44.390Z,23.90
2023-04-27T17:14:47.217Z,23.54
2023-04-27T17:16:49.911Z,24.17
2023-04-27T17:18:52.708Z,24.52
2023-04-27T17:20:56.761Z,24.62
2023-04-27T17:22:59.496Z,24.38
2023-04-27T17:25:02.284Z,23.79
2023-04-27T17:27:05.156Z,24.03
2023-04-27T17:29:07.846Z,22.81
2023-04-27T17:31:10.649Z,23.78
2023-04-27T17:33:14.733Z,23.48
2023-04-27T17:35:20.477Z,22.78
2023-04-27T17:37:24.726Z,22.29
2023-04-27T17:39:27.484Z,21.76
2023-04-27T17:41:32.636Z,21.32
2023-04-27T17:43:37.584Z,20.72
2023-04-27T17:45:40.338Z,18.58
2023-04-27T17:47:43.076Z,20.16
2023-04-27T17:49:45.812Z,19.40
2023-04-27T17:51:49.912Z,19.50
2023-04-27T17:53:54.005Z,17.77
2023-04-27T17:55:56.827Z,19.13
2023-04-27T17:57:59.602Z,19.01
2023-04-27T18:00:02.336Z,18.82
2023-04-27T18:02:12.441Z,18.59
2023-04-27T18:04:15.402Z,17.59
2023-04-27T18:06:19.366Z,17.14
2023-04-27T18:08:22.121Z,17.73
2023-04-27T18:10:26.214Z,16.43
2023-04-27T18:12:28.954Z,16.89
2023-04-27T18:14:31.680Z,16.37
2023-04-27T18:16:34.465Z,17.23
2023-04-27T18:18:37.346Z,17.16
2023-04-27T18:20:44.670Z,16.83
2023-04-27T18:22:47.441Z,16.75
2023-04-27T18:24:50.269Z,16.69
2023-04-27T18:26:54.380Z,16.40
2023-04-27T18:28:58.544Z,16.27
2023-04-27T18:31:01.308Z,16.42
2023-04-27T18:33:04.491Z,14.54
2023-04-27T18:35:08.032Z,15.58
2023-04-27T18:37:11.102Z,15.70
2023-04-27T18:39:14.050Z,15.47
2023-04-27T18:41:16.905Z,15.70
2023-04-27T18:43:21.028Z,15.58
2023-04-27T18:45:23.912Z,15.40
2023-04-27T18:47:26.690Z,15.74
2023-04-27T18:49:29.432Z,15.53
2023-04-27T18:51:32.362Z,15.49
2023-04-27T18:53:35.408Z,15.34
2023-04-27T18:55:39.391Z,15.38
2023-04-27T18:57:42.117Z,14.54
2023-04-27T18:59:46.692Z,15.19
2023-04-27T19:01:49.448Z,14.91
2023-04-27T19:03:52.860Z,14.91
2023-04-27T19:05:55.986Z,14.46
2023-04-27T19:07:58.778Z,15.07
2023-04-27T19:10:01.567Z,15.03
2023-04-27T19:12:04.608Z,14.70
2023-04-27T19:14:07.425Z,14.16
2023-04-27T19:16:11.885Z,15.02
2023-04-27T19:18:14.652Z,15.00
2023-04-27T19:20:17.434Z,14.85
2023-04-27T19:22:20.386Z,14.40
2023-04-27T19:24:23.157Z,14.31
2023-04-27T19:26:27.665Z,14.61
2023-04-27T19:28:33.430Z,14.56
2023-04-27T19:30:36.220Z,14.48
2023-04-27T19:32:40.357Z,14.46
2023-04-27T19:34:43.087Z,14.18
2023-04-27T19:36:46.260Z,13.57
2023-04-27T19:38:48.984Z,13.02
2023-04-27T19:40:51.770Z,14.13
2023-04-27T19:42:54.547Z,13.58
2023-04-27T19:44:57.257Z,14.10
2023-04-27T19:47:00.012Z,14.12
2023-04-27T19:49:04.193Z,14.16
2023-04-27T19:51:10.257Z,13.98
2023-04-27T19:53:13.052Z,14.09
2023-04-27T19:55:15.993Z,11.77
2023-04-27T19:57:18.745Z,12.33
2023-04-27T19:59:21.673Z,13.78
2023-04-27T20:01:24.425Z,13.78
2023-04-27T20:03:27.394Z,13.87
2023-04-27T20:05:31.878Z,13.84
2023-04-27T20:07:38.237Z,13.90
2023-04-27T20:09:41.071Z,13.72
2023-04-27T20:11:45.340Z,14.04
2023-04-27T20:13:49.303Z,13.87
2023-04-27T20:15:52.425Z,13.53
2023-04-27T20:17:55.367Z,13.40
2023-04-27T20:19:58.151Z,13.08
2023-04-27T20:22:03.009Z,13.62
2023-04-27T20:24:06.550Z,13.42
2023-04-27T20:26:09.652Z,11.29
2023-04-27T20:28:12.443Z,13.31
2023-04-27T20:30:15.420Z,13.14
2023-04-27T20:32:18.291Z,13.31
2023-04-27T20:34:21.096Z,12.99
2023-04-27T20:36:24.101Z,13.29
2023-04-27T20:38:28.306Z,13.26
2023-04-27T20:40:31.570Z,13.37
2023-04-27T20:42:34.611Z,13.43
2023-04-27T20:44:40.373Z,13.46
2023-04-27T20:46:43.234Z,13.39
2023-04-27T20:48:47.034Z,11.32
2023-04-27T20:50:50.274Z,13.02
2023-04-27T20:52:53.062Z,13.43
2023-04-27T20:54:57.265Z,12.88
2023-04-27T20:57:01.448Z,13.05
2023-04-27T20:59:04.575Z,13.47
2023-04-27T21:01:08.536Z,13.24
2023-04-27T21:03:11.608Z,13.43
2023-04-27T21:05:14.584Z,12.86
2023-04-27T21:07:17.386Z,12.59
2023-04-27T21:09:20.487Z,12.85
2023-04-27T21:11:24.846Z,12.75
2023-04-27T21:13:27.650Z,12.40
2023-04-27T21:15:30.553Z,12.92
2023-04-27T21:17:33.499Z,13.11
2023-04-27T21:19:36.390Z,12.88
2023-04-27T21:21:39.301Z,12.85
2023-04-27T21:23:42.109Z,12.79
2023-04-27T21:25:45.404Z,12.69
2023-04-27T21:27:49.594Z,13.02
2023-04-27T21:29:52.404Z,12.84
2023-04-27T21:31:55.191Z,13.11
2023-04-27T21:33:57.968Z,13.02
2023-04-27T21:36:00.953Z,12.57
2023-04-27T21:38:03.825Z,12.68
2023-04-27T21:40:07.710Z,12.75
2023-04-27T21:42:10.494Z,12.00
2023-04-27T21:44:14.861Z,12.65
2023-04-27T21:46:17.958Z,11.54
2023-04-27T21:48:20.927Z,11.99
2023-04-27T21:50:23.776Z,12.59
2023-04-27T21:52:27.164Z,12.56
2023-04-27T21:54:29.958Z,12.31
2023-04-27T21:56:32.757Z,11.06
2023-04-27T21:58:35.534Z,12.00
2023-04-27T22:00:39.719Z,12.06
2023-04-27T22:02:43.345Z,12.28
2023-04-27T22:04:46.559Z,12.40
2023-04-27T22:06:49.485Z,10.32
2023-04-27T22:08:52.684Z,12.37
2023-04-27T22:10:56.630Z,11.51
2023-04-27T22:13:05.194Z,12.28
2023-04-27T22:15:11.753Z,11.27
2023-04-27T22:17:15.909Z,12.51
2023-04-27T22:19:19.183Z,12.60
2023-04-27T22:21:21.947Z,10.67
2023-04-27T22:23:24.865Z,11.58
2023-04-27T22:25:28.396Z,12.59
2023-04-27T22:27:42.120Z,12.60
2023-04-27T22:29:47.557Z,12.62
2023-04-27T22:31:52.159Z,12.54
2023-04-27T22:33:56.834Z,12.54
2023-04-27T22:36:00.543Z,12.29
2023-04-27T22:38:03.653Z,12.48
2023-04-27T22:40:08.741Z,11.75
2023-04-27T22:42:11.607Z,12.18
2023-04-27T22:44:14.578Z,12.61
2023-04-27T22:46:17.576Z,12.63
2023-04-27T22:48:20.461Z,10.65
2023-04-27T22:50:24.848Z,12.72
2023-04-27T22:52:27.645Z,12.71
2023-04-27T22:54:31.159Z,12.33
2023-04-27T22:56:33.980Z,12.76
2023-04-27T22:58:37.116Z,12.21
2023-04-27T23:00:40.434Z,12.40
2023-04-27T23:02:43.868Z,12.78
2023-04-27T23:04:46.840Z,12.81
2023-04-27T23:06:53.604Z,12.82
2023-04-27T23:08:56.689Z,12.63
2023-04-27T23:10:59.447Z,12.45
2023-04-27T23:13:04.314Z,11.39
2023-04-27T23:15:07.808Z,12.51
2023-04-27T23:17:11.754Z,12.32
2023-04-27T23:19:14.558Z,12.38
2023-04-27T23:21:17.279Z,12.50
2023-04-27T23:23:21.386Z,12.58
2023-04-27T23:25:24.364Z,12.51
2023-04-27T23:27:27.543Z,12.59
2023-04-27T23:29:31.654Z,12.60
2023-04-27T23:31:34.492Z,12.61
2023-04-27T23:33:37.410Z,12.63
2023-04-27T23:35:40.164Z,12.69
2023-04-27T23:37:42.954Z,12.76
2023-04-27T23:39:47.179Z,12.73
2023-04-27T23:41:49.901Z,12.74
2023-04-27T23:43:52.692Z,12.73
2023-04-27T23:45:55.812Z,12.63
2023-04-27T23:48:00.172Z,11.78
2023-04-27T23:50:03.876Z,11.68
2023-04-27T23:52:06.674Z,11.47
2023-04-27T23:54:09.434Z,10.82
2023-04-27T23:56:18.217Z,10.83
2023-04-27T23:58:21.947Z,11.89
